createdAt,value
2023-07-26T00:00:40.450Z,11.73
2023-07-26T00:03:08.739Z,5.38
2023-07-26T00:05:35.544Z,6.68
2023-07-26T00:08:02.282Z,5.67
2023-07-26T00:10:28.957Z,5.00
2023-07-26T00:12:55.636Z,5.47
2023-07-26T00:15:22.316Z,4.65
2023-07-26T00:17:49.085Z,5.28
2023-07-26T00:20:17.426Z,6.80
2023-07-26T00:22:44.066Z,6.75
2023-07-26T00:25:10.970Z,5.95
2023-07-26T00:27:37.674Z,5.70
2023-07-26T00:30:05.389Z,5.03
2023-07-26T00:32:32.066Z,6.37
2023-07-26T00:34:58.769Z,6.63
2023-07-26T00:37:26.809Z,8.38
2023-07-26T00:39:53.471Z,5.20
2023-07-26T00:42:20.151Z,6.70
2023-07-26T00:44:46.796Z,5.87
2023-07-26T00:47:13.739Z,5.05
2023-07-26T00:49:40.545Z,6.78
2023-07-26T00:52:08.167Z,6.03
2023-07-26T00:54:36.345Z,4.78
2023-07-26T00:57:03.291Z,6.23
2023-07-26T00:59:30.147Z,8.45
2023-07-26T01:01:56.785Z,7.82
2023-07-26T01:04:23.529Z,4.82
2023-07-26T01:06:57.631Z,5.22
2023-07-26T01:09:31.152Z,4.90
2023-07-26T01:12:05.402Z,5.78
2023-07-26T01:14:38.040Z,4.68
2023-07-26T01:17:05.050Z,4.93
2023-07-26T01:19:31.809Z,7.05
2023-07-26T01:21:59.934Z,9.90
2023-07-26T01:24:26.770Z,6.22
2023-07-26T01:26:53.475Z,6.93
2023-07-26T01:29:20.104Z,8.73
2023-07-26T01:31:47.641Z,5.20
2023-07-26T01:34:14.536Z,6.30
2023-07-26T01:36:42.156Z,6.28
2023-07-26T01:39:10.318Z,7.20
2023-07-26T01:41:37.788Z,6.68
2023-07-26T01:44:05.108Z,10.13
2023-07-26T01:46:31.820Z,5.10
2023-07-26T01:48:58.621Z,6.68
2023-07-26T01:51:25.451Z,7.13
2023-07-26T01:53:52.130Z,4.43
2023-07-26T01:56:20.228Z,6.97
2023-07-26T01:58:46.847Z,4.70
2023-07-26T02:01:13.610Z,4.38
2023-07-26T02:03:40.278Z,4.57
2023-07-26T02:06:06.954Z,4.45
2023-07-26T02:08:33.668Z,5.82
2023-07-26T02:11:00.366Z,6.20
2023-07-26T02:13:28.475Z,11.10
2023-07-26T02:15:55.180Z,4.75
2023-07-26T02:18:23.120Z,6.57
2023-07-26T02:20:49.891Z,5.03
2023-07-26T02:23:16.496Z,5.93
2023-07-26T02:25:43.195Z,6.70
2023-07-26T02:28:09.878Z,5.60
2023-07-26T02:30:38.240Z,5.25
2023-07-26T02:33:04.909Z,4.70
2023-07-26T02:35:31.566Z,5.00
2023-07-26T02:37:58.154Z,3.65
2023-07-26T02:40:24.771Z,3.65
2023-07-26T02:42:52.622Z,5.18
2023-07-26T02:45:20.767Z,4.43
2023-07-26T02:47:48.871Z,5.13
2023-07-26T02:50:15.629Z,5.10
2023-07-26T02:52:42.290Z,4.97
2023-07-26T02:55:09.539Z,5.85
2023-07-26T02:57:36.227Z,3.92
2023-07-26T03:00:03.219Z,6.20
2023-07-26T03:02:29.925Z,7.60
2023-07-26T03:04:58.173Z,6.25
2023-07-26T03:07:24.877Z,4.93
2023-07-26T03:09:51.538Z,4.85
2023-07-26T03:12:18.140Z,5.67
2023-07-26T03:14:44.992Z,4.90
2023-07-26T03:17:22.301Z,5.35
2023-07-26T03:19:49.922Z,5.13
2023-07-26T03:22:18.050Z,5.00
2023-07-26T03:24:44.844Z,8.73
2023-07-26T03:27:11.844Z,5.93
2023-07-26T03:29:38.483Z,4.45
2023-07-26T03:32:05.981Z,5.72
2023-07-26T03:34:32.756Z,5.85
2023-07-26T03:36:59.422Z,4.90
2023-07-26T03:39:27.409Z,4.82
2023-07-26T03:41:54.319Z,6.50
2023-07-26T03:44:20.953Z,4.72
2023-07-26T03:46:47.720Z,5.97
2023-07-26T03:49:14.363Z,5.80
2023-07-26T03:51:41.089Z,4.22
2023-07-26T03:54:07.738Z,6.68
2023-07-26T03:56:35.727Z,7.43
2023-07-26T03:59:02.853Z,5.25
2023-07-26T04:01:29.537Z,6.17
2023-07-26T04:03:56.321Z,7.88
2023-07-26T04:06:23.037Z,7.47
2023-07-26T04:08:49.732Z,8.25
2023-07-26T04:11:16.448Z,5.57
2023-07-26T04:13:44.440Z,4.47
2023-07-26T04:16:15.331Z,5.80
2023-07-26T04:18:42.127Z,4.25
2023-07-26T04:21:13.111Z,3.95
2023-07-26T04:23:39.727Z,3.60
2023-07-26T04:26:06.414Z,3.70
2023-07-26T04:28:33.118Z,6.38
2023-07-26T04:31:01.244Z,4.45
2023-07-26T04:33:27.993Z,6.25
2023-07-26T04:35:54.660Z,5.03
2023-07-26T04:38:21.671Z,3.83
2023-07-26T04:40:48.306Z,4.22
2023-07-26T04:43:15.072Z,6.65
2023-07-26T04:45:41.741Z,8.27
2023-07-26T04:48:09.788Z,5.55
2023-07-26T04:50:36.515Z,5.50
2023-07-26T04:53:03.195Z,5.18
2023-07-26T04:55:29.844Z,4.53
2023-07-26T04:57:56.523Z,3.75
2023-07-26T05:00:23.187Z,4.72
2023-07-26T05:02:49.908Z,3.87
2023-07-26T05:05:17.883Z,4.78
2023-07-26T05:07:44.505Z,4.82
2023-07-26T05:10:11.125Z,5.63
2023-07-26T05:12:37.765Z,4.47
2023-07-26T05:15:05.023Z,4.83
2023-07-26T05:17:31.690Z,4.18
2023-07-26T05:19:58.327Z,4.38
2023-07-26T05:22:26.316Z,4.82
2023-07-26T05:24:53.420Z,5.47
2023-07-26T05:27:20.157Z,7.47
2023-07-26T05:29:46.837Z,5.60
2023-07-26T05:32:13.510Z,4.18
2023-07-26T05:34:40.194Z,6.80
2023-07-26T05:37:06.883Z,3.67
2023-07-26T05:39:34.887Z,4.27
2023-07-26T05:42:01.528Z,3.45
2023-07-26T05:44:28.186Z,6.45
2023-07-26T05:46:55.018Z,5.40
2023-07-26T05:49:21.718Z,4.53
2023-07-26T05:51:48.434Z,8.17
2023-07-26T05:54:15.022Z,4.53
2023-07-26T05:56:43.061Z,4.75
2023-07-26T05:59:09.796Z,4.32
2023-07-26T06:01:36.579Z,4.53
2023-07-26T06:04:03.765Z,5.40
2023-07-26T06:06:30.592Z,5.28
2023-07-26T06:08:57.364Z,5.53
2023-07-26T06:11:24.119Z,4.85
2023-07-26T06:13:52.504Z,4.38
2023-07-26T06:16:19.257Z,4.17
2023-07-26T06:18:45.846Z,4.60
2023-07-26T06:21:12.507Z,4.82
2023-07-26T06:23:39.191Z,4.32
2023-07-26T06:26:05.881Z,5.75
2023-07-26T06:28:32.527Z,2.97
2023-07-26T06:31:01.240Z,5.00
2023-07-26T06:33:28.020Z,6.53
2023-07-26T06:35:54.777Z,6.10
2023-07-26T06:38:21.633Z,5.20
2023-07-26T06:40:48.389Z,3.33
2023-07-26T06:43:15.215Z,4.78
2023-07-26T06:45:45.206Z,3.03
2023-07-26T06:48:13.596Z,2.72
2023-07-26T06:50:40.392Z,3.05
2023-07-26T06:53:07.222Z,2.67
2023-07-26T06:55:33.974Z,4.65
2023-07-26T06:58:00.704Z,4.50
2023-07-26T07:00:27.548Z,3.85
2023-07-26T07:02:55.525Z,3.65
2023-07-26T07:05:24.217Z,4.87
2023-07-26T07:07:50.915Z,4.50
2023-07-26T07:10:17.581Z,4.28
2023-07-26T07:12:44.349Z,3.97
2023-07-26T07:15:11.954Z,4.15
2023-07-26T07:17:38.660Z,3.20
2023-07-26T07:20:06.634Z,4.00
2023-07-26T07:22:34.989Z,4.15
2023-07-26T07:25:01.724Z,3.38
2023-07-26T07:27:28.427Z,6.38
2023-07-26T07:29:55.281Z,6.07
2023-07-26T07:32:22.730Z,3.20
2023-07-26T07:34:50.138Z,4.25
2023-07-26T07:37:16.784Z,2.83
2023-07-26T07:39:44.850Z,5.38
2023-07-26T07:42:11.520Z,2.87
2023-07-26T07:44:38.258Z,3.35
2023-07-26T07:47:07.185Z,2.42
2023-07-26T07:49:35.314Z,4.22
2023-07-26T07:52:01.927Z,3.75
2023-07-26T07:54:29.696Z,6.00
2023-07-26T07:56:57.873Z,4.43
2023-07-26T07:59:24.519Z,2.83
2023-07-26T08:01:51.213Z,5.30
2023-07-26T08:04:17.947Z,6.15
2023-07-26T08:06:44.665Z,5.60
2023-07-26T08:09:11.435Z,4.45
2023-07-26T08:11:38.145Z,4.10
2023-07-26T08:14:06.154Z,4.85
2023-07-26T08:16:32.960Z,4.65
2023-07-26T08:18:59.684Z,4.63
2023-07-26T08:21:26.418Z,3.17
2023-07-26T08:23:53.044Z,4.97
2023-07-26T08:26:20.313Z,3.63
2023-07-26T08:28:46.986Z,5.28
2023-07-26T08:31:15.042Z,4.53
2023-07-26T08:33:41.741Z,5.03
2023-07-26T08:36:08.392Z,3.13
2023-07-26T08:38:35.090Z,4.50
2023-07-26T08:41:02.180Z,5.88
2023-07-26T08:43:32.265Z,5.47
2023-07-26T08:46:00.493Z,4.57
2023-07-26T08:48:28.872Z,5.22
2023-07-26T08:50:56.454Z,4.07
2023-07-26T08:53:24.190Z,4.50
2023-07-26T08:55:50.854Z,3.63
2023-07-26T08:58:17.574Z,6.03
2023-07-26T09:00:44.387Z,4.40
2023-07-26T09:03:11.573Z,6.40
2023-07-26T09:05:39.696Z,8.20
2023-07-26T09:08:06.645Z,5.30
2023-07-26T09:10:33.441Z,4.63
2023-07-26T09:13:10.780Z,3.55
2023-07-26T09:15:38.586Z,4.40
2023-07-26T09:18:05.690Z,3.65
2023-07-26T09:20:33.336Z,4.50
2023-07-26T09:23:06.068Z,4.38
2023-07-26T09:25:34.350Z,3.63
2023-07-26T09:28:01.582Z,4.45
2023-07-26T09:30:28.405Z,7.18
2023-07-26T09:32:55.823Z,4.37
2023-07-26T09:35:22.685Z,5.03
2023-07-26T09:37:49.508Z,4.85
2023-07-26T09:40:24.753Z,5.03
2023-07-26T09:42:59.143Z,6.70
2023-07-26T09:45:27.470Z,4.73
2023-07-26T09:48:06.019Z,5.78
2023-07-26T09:53:03.964Z,6.97
2023-07-26T09:55:33.792Z,7.68
2023-07-26T09:58:01.700Z,7.23
2023-07-26T10:00:29.421Z,6.70
2023-07-26T10:02:58.711Z,8.45
2023-07-26T10:05:26.240Z,8.60
2023-07-26T10:07:53.183Z,5.53
2023-07-26T10:10:20.969Z,9.57
2023-07-26T10:12:52.070Z,4.57
2023-07-26T10:15:21.105Z,2.90
2023-07-26T10:17:48.383Z,4.90
2023-07-26T10:20:16.223Z,3.17
2023-07-26T10:22:43.942Z,2.90
2023-07-26T10:25:11.139Z,4.05
2023-07-26T10:27:39.616Z,3.55
2023-07-26T10:30:08.570Z,4.13
2023-07-26T10:32:39.790Z,5.18
2023-07-26T10:35:06.977Z,4.07
2023-07-26T10:37:34.608Z,4.75
2023-07-26T10:40:26.824Z,3.75
2023-07-26T10:42:53.484Z,3.90
2023-07-26T10:45:40.048Z,4.18
2023-07-26T10:48:13.077Z,7.13
2023-07-26T10:50:39.754Z,4.88
2023-07-26T10:53:28.912Z,6.47
2023-07-26T10:56:07.118Z,5.95
2023-07-26T10:58:33.828Z,4.70
2023-07-26T11:01:05.009Z,5.47
2023-07-26T11:03:31.705Z,5.30
2023-07-26T11:05:58.537Z,3.63
2023-07-26T11:08:42.962Z,4.30
2023-07-26T11:11:09.839Z,5.00
2023-07-26T11:13:37.176Z,5.33
2023-07-26T11:16:16.509Z,3.80
2023-07-26T11:18:46.025Z,4.45
2023-07-26T11:21:15.384Z,3.85
2023-07-26T11:23:42.025Z,4.50
2023-07-26T11:26:08.697Z,3.67
2023-07-26T11:28:35.448Z,3.50
2023-07-26T11:31:02.734Z,3.08
2023-07-26T11:33:32.337Z,6.38
2023-07-26T11:35:59.657Z,3.17
2023-07-26T11:38:26.355Z,3.67
2023-07-26T11:40:53.371Z,4.38
2023-07-26T11:43:20.505Z,3.72
2023-07-26T11:45:47.423Z,4.60
2023-07-26T11:48:14.726Z,4.72
2023-07-26T11:50:43.157Z,5.00
2023-07-26T11:53:10.962Z,3.88
2023-07-26T11:55:39.474Z,2.97
2023-07-26T11:58:07.767Z,2.92
2023-07-26T12:00:35.962Z,3.55
2023-07-26T12:03:03.247Z,3.57
2023-07-26T12:05:30.072Z,4.13
2023-07-26T12:07:59.714Z,3.85
2023-07-26T12:10:32.513Z,3.45
2023-07-26T12:13:00.675Z,4.03
2023-07-26T12:15:28.299Z,4.10
2023-07-26T12:18:00.616Z,3.92
2023-07-26T12:20:35.648Z,3.47
2023-07-26T12:23:13.595Z,3.78
2023-07-26T12:25:40.277Z,3.22
2023-07-26T12:28:07.651Z,4.67
2023-07-26T12:30:34.893Z,3.03
2023-07-26T12:33:12.062Z,3.92
2023-07-26T12:35:39.272Z,3.38
2023-07-26T12:38:11.069Z,3.33
2023-07-26T12:40:39.871Z,4.83
2023-07-26T12:43:26.922Z,4.00
2023-07-26T12:45:54.642Z,2.65
2023-07-26T12:48:21.859Z,4.43
2023-07-26T12:50:50.252Z,3.03
2023-07-26T12:53:16.859Z,3.23
2023-07-26T12:55:45.192Z,2.65
2023-07-26T12:58:11.893Z,5.05
2023-07-26T13:00:38.504Z,3.60
2023-07-26T13:03:05.602Z,4.38
2023-07-26T13:05:32.504Z,4.03
2023-07-26T13:07:59.258Z,3.97
2023-07-26T13:10:27.239Z,4.68
2023-07-26T13:12:55.710Z,3.63
2023-07-26T13:15:23.305Z,3.53
2023-07-26T13:17:50.961Z,3.43
2023-07-26T13:20:18.084Z,3.83
2023-07-26T13:22:45.115Z,4.90
2023-07-26T13:25:11.785Z,3.67
2023-07-26T13:27:38.717Z,3.90
2023-07-26T13:30:08.273Z,3.50
2023-07-26T13:32:34.996Z,3.20
2023-07-26T13:35:01.967Z,4.68
2023-07-26T13:37:29.849Z,3.47
2023-07-26T13:39:56.886Z,3.42
2023-07-26T13:42:23.606Z,3.30
2023-07-26T13:44:50.313Z,4.40
2023-07-26T13:47:18.524Z,3.53
2023-07-26T13:49:45.310Z,3.40
2023-07-26T13:52:11.950Z,4.25
2023-07-26T13:54:38.568Z,7.00
2023-07-26T13:57:06.718Z,7.78
2023-07-26T13:59:34.468Z,4.57
2023-07-26T14:02:01.091Z,3.58
2023-07-26T14:04:29.167Z,3.47
2023-07-26T14:06:55.850Z,5.40
2023-07-26T14:09:22.475Z,3.60
2023-07-26T14:11:49.155Z,4.18
2023-07-26T14:14:16.435Z,3.55
2023-07-26T14:16:43.719Z,4.10
2023-07-26T14:19:10.474Z,3.93
2023-07-26T14:21:38.944Z,4.20
2023-07-26T14:24:06.185Z,6.13
2023-07-26T14:26:33.356Z,3.33
2023-07-26T14:29:00.245Z,3.85
2023-07-26T14:31:27.067Z,4.50
2023-07-26T14:33:53.734Z,4.38
2023-07-26T14:36:20.561Z,4.25
2023-07-26T14:38:48.548Z,6.50
2023-07-26T14:41:16.348Z,4.13
2023-07-26T14:43:43.339Z,4.33
2023-07-26T14:46:10.173Z,4.82
2023-07-26T14:48:37.011Z,3.95
2023-07-26T14:51:04.077Z,4.00
2023-07-26T14:53:30.760Z,3.28
2023-07-26T14:55:59.010Z,3.53
2023-07-26T14:58:25.681Z,4.22
2023-07-26T15:00:52.964Z,5.13
2023-07-26T15:03:19.801Z,3.50
2023-07-26T15:05:46.702Z,5.03
2023-07-26T15:08:13.900Z,11.20
2023-07-26T15:10:40.731Z,8.05
2023-07-26T15:13:08.839Z,4.47
2023-07-26T15:15:35.508Z,4.63
2023-07-26T15:18:02.923Z,5.70
2023-07-26T15:20:29.785Z,4.70
2023-07-26T15:22:56.462Z,4.35
2023-07-26T15:25:23.151Z,4.57
2023-07-26T15:27:50.149Z,4.72
2023-07-26T15:30:18.386Z,3.88
2023-07-26T15:32:45.487Z,3.97
2023-07-26T15:35:12.300Z,3.95
2023-07-26T15:37:40.952Z,3.95
2023-07-26T15:40:09.192Z,4.15
2023-07-26T15:42:36.514Z,6.65
2023-07-26T15:45:20.377Z,3.00
2023-07-26T15:47:48.836Z,3.15
2023-07-26T15:50:15.902Z,6.85
2023-07-26T15:52:42.813Z,5.47
2023-07-26T15:55:09.844Z,3.97
2023-07-26T15:57:36.512Z,4.10
2023-07-26T16:00:03.861Z,4.13
2023-07-26T16:10:34.958Z,4.33
2023-07-26T16:13:01.681Z,3.85
2023-07-26T16:20:29.405Z,3.95
2023-07-26T16:22:56.196Z,5.00
2023-07-26T16:25:23.005Z,4.10
2023-07-26T16:27:49.852Z,3.88
2023-07-26T16:30:16.638Z,4.40
2023-07-26T16:32:43.433Z,3.60
2023-07-26T16:35:10.044Z,3.27
2023-07-26T16:37:38.111Z,3.72
2023-07-26T16:40:05.983Z,4.43
2023-07-26T16:42:32.740Z,4.00
2023-07-26T16:44:59.519Z,3.85
2023-07-26T16:47:26.202Z,4.77
2023-07-26T16:49:52.934Z,4.18
2023-07-26T16:52:19.777Z,3.50
2023-07-26T16:54:47.879Z,4.10
2023-07-26T16:57:15.146Z,5.05
2023-07-26T16:59:41.840Z,3.73
2023-07-26T17:02:12.686Z,4.10
2023-07-26T17:04:39.408Z,3.53
2023-07-26T17:07:06.761Z,3.83
2023-07-26T17:09:33.497Z,3.35
2023-07-26T17:12:01.601Z,3.90
2023-07-26T17:14:28.432Z,3.17
2023-07-26T17:16:55.114Z,3.63
2023-07-26T17:19:21.792Z,3.67
2023-07-26T17:21:48.456Z,4.72
2023-07-26T17:24:15.186Z,5.20
2023-07-26T17:26:41.893Z,5.07
2023-07-26T17:29:09.966Z,3.63
2023-07-26T17:31:36.689Z,4.68
2023-07-26T17:34:03.436Z,3.80
2023-07-26T17:36:30.295Z,4.37
2023-07-26T17:38:57.103Z,5.20
2023-07-26T17:41:23.762Z,5.63
2023-07-26T17:43:50.536Z,3.72
2023-07-26T17:46:18.671Z,4.95
2023-07-26T17:48:45.352Z,4.47
2023-07-26T17:51:12.033Z,4.57
2023-07-26T17:53:38.745Z,6.30
2023-07-26T17:56:06.212Z,4.38
2023-07-26T17:58:34.420Z,4.70
2023-07-26T18:01:01.136Z,4.23
2023-07-26T18:03:29.222Z,4.13
2023-07-26T18:05:56.254Z,3.80
2023-07-26T18:08:22.997Z,5.18
2023-07-26T18:10:49.653Z,4.47
2023-07-26T18:13:16.456Z,3.93
2023-07-26T18:15:43.147Z,3.25
2023-07-26T18:18:09.871Z,3.72
2023-07-26T18:20:38.008Z,4.28
2023-07-26T18:23:04.644Z,3.60
2023-07-26T18:25:31.288Z,4.13
2023-07-26T18:27:58.424Z,4.35
2023-07-26T18:30:25.113Z,4.80
2023-07-26T18:32:51.929Z,5.78
2023-07-26T18:35:18.784Z,3.38
2023-07-26T18:37:46.873Z,3.93
2023-07-26T18:40:13.694Z,5.05
2023-07-26T18:42:40.470Z,5.68
2023-07-26T18:45:08.342Z,5.22
2023-07-26T18:47:35.117Z,4.05
2023-07-26T18:50:02.049Z,4.33
2023-07-26T18:52:28.829Z,4.72
2023-07-26T18:54:56.912Z,5.95
2023-07-26T18:57:23.813Z,3.10
2023-07-26T18:59:50.474Z,5.35
2023-07-26T19:02:17.211Z,5.47
2023-07-26T19:04:43.926Z,3.88
2023-07-26T19:07:10.577Z,3.40
2023-07-26T19:09:37.351Z,5.97
2023-07-26T19:12:06.889Z,4.38
2023-07-26T19:14:33.620Z,3.63
2023-07-26T19:17:00.341Z,4.15
2023-07-26T19:19:27.059Z,5.18
2023-07-26T19:21:53.747Z,3.97
2023-07-26T19:24:20.428Z,3.95
2023-07-26T19:26:47.070Z,3.77
2023-07-26T19:29:15.449Z,3.78
2023-07-26T19:31:42.150Z,3.30
2023-07-26T19:34:08.932Z,3.50
2023-07-26T19:36:35.847Z,3.85
2023-07-26T19:39:02.718Z,4.87
2023-07-26T19:41:29.502Z,3.83
2023-07-26T19:43:56.144Z,3.80
2023-07-26T19:46:24.337Z,4.18
2023-07-26T19:48:51.075Z,3.58
2023-07-26T19:51:17.857Z,4.53
2023-07-26T19:53:44.529Z,4.32
2023-07-26T19:56:11.208Z,5.78
2023-07-26T19:58:37.963Z,4.20
2023-07-26T20:01:05.350Z,3.67
2023-07-26T20:03:33.733Z,4.63
2023-07-26T20:06:00.463Z,6.00
2023-07-26T20:08:27.121Z,4.88
2023-07-26T20:10:53.735Z,5.22
2023-07-26T20:13:20.424Z,5.22
2023-07-26T20:15:47.143Z,5.97
2023-07-26T20:18:14.610Z,6.78
2023-07-26T20:20:43.277Z,5.15
2023-07-26T20:23:10.090Z,5.45
2023-07-26T20:25:36.707Z,5.40
2023-07-26T20:28:03.650Z,4.70
2023-07-26T20:30:30.364Z,4.90
2023-07-26T20:32:57.064Z,4.80
2023-07-26T20:35:23.792Z,5.65
2023-07-26T20:37:51.898Z,5.10
2023-07-26T20:40:18.762Z,5.70
2023-07-26T20:42:45.485Z,5.15
2023-07-26T20:45:12.159Z,4.60
2023-07-26T20:47:38.919Z,5.50
2023-07-26T20:50:06.398Z,6.10
2023-07-26T20:52:33.177Z,5.53
2023-07-26T20:55:01.960Z,6.38
2023-07-26T20:57:28.876Z,8.32
2023-07-26T20:59:55.644Z,6.22
2023-07-26T21:02:22.525Z,6.43
2023-07-26T21:04:49.264Z,7.57
2023-07-26T21:07:15.967Z,6.00
2023-07-26T21:09:42.769Z,8.50
2023-07-26T21:12:10.997Z,7.80
2023-07-26T21:14:37.681Z,7.95
2023-07-26T21:17:05.077Z,7.23
2023-07-26T21:19:33.295Z,5.57
2023-07-26T21:22:00.272Z,5.93
2023-07-26T21:24:27.121Z,7.13
2023-07-26T21:26:53.845Z,8.38
2023-07-26T21:29:21.919Z,6.60
2023-07-26T21:31:48.589Z,6.82
2023-07-26T21:34:15.312Z,7.25
2023-07-26T21:36:42.391Z,7.18
2023-07-26T21:39:09.303Z,6.93
2023-07-26T21:41:35.940Z,6.53
2023-07-26T21:44:02.576Z,6.85
2023-07-26T21:46:30.648Z,6.90
2023-07-26T21:48:57.401Z,6.18
2023-07-26T21:51:24.128Z,6.32
2023-07-26T21:53:50.778Z,5.80
2023-07-26T21:56:17.435Z,6.43
2023-07-26T21:58:44.189Z,8.48
2023-07-26T22:01:10.898Z,7.88
2023-07-26T22:03:39.001Z,8.55
2023-07-26T22:06:06.692Z,6.90
2023-07-26T22:08:33.432Z,7.45
2023-07-26T22:11:00.832Z,7.25
2023-07-26T22:13:27.670Z,6.25
2023-07-26T22:15:54.345Z,8.40
2023-07-26T22:18:21.385Z,7.33
2023-07-26T22:21:15.599Z,7.38
2023-07-26T22:23:43.313Z,7.20
2023-07-26T22:26:14.247Z,7.97
2023-07-26T22:28:42.496Z,8.98
2023-07-26T22:31:09.255Z,9.63
2023-07-26T22:33:36.314Z,7.13
2023-07-26T22:36:05.211Z,7.72
2023-07-26T22:38:31.960Z,8.65
2023-07-26T22:40:58.672Z,9.02
2023-07-26T22:43:25.400Z,8.20
2023-07-26T22:45:52.118Z,8.82
2023-07-26T22:48:18.983Z,8.25
2023-07-26T22:50:45.612Z,9.98
2023-07-26T22:53:13.616Z,8.40
2023-07-26T22:55:40.232Z,8.17
2023-07-26T22:58:06.853Z,9.13
2023-07-26T23:00:33.773Z,8.30
2023-07-26T23:06:04.244Z,9.40
2023-07-26T23:08:32.364Z,7.43
2023-07-26T23:10:59.890Z,8.20
2023-07-26T23:13:27.103Z,8.15
2023-07-26T23:15:54.002Z,8.68
2023-07-26T23:18:20.927Z,8.77
2023-07-26T23:20:49.875Z,9.07
2023-07-26T23:23:16.738Z,8.75
2023-07-26T23:25:45.045Z,7.90
2023-07-26T23:28:11.789Z,7.38
2023-07-26T23:30:43.416Z,8.20
2023-07-26T23:33:10.079Z,7.63
2023-07-26T23:35:36.796Z,8.93
2023-07-26T23:38:03.611Z,9.38
2023-07-26T23:40:30.289Z,9.13
2023-07-26T23:42:58.350Z,10.18
2023-07-26T23:45:25.050Z,11.03
2023-07-26T23:47:51.857Z,9.07
2023-07-26T23:50:18.502Z,10.80
2023-07-26T23:52:45.165Z,10.77
2023-07-26T23:55:11.814Z,14.30
2023-07-26T23:57:38.482Z,11.77
